createdAt,value
2022-09-10T00:01:35.904Z,19.27
2022-09-10T00:04:11.707Z,19.23
2022-09-10T00:06:39.616Z,19.24
2022-09-10T00:09:08.235Z,19.20
2022-09-10T00:11:38.514Z,19.19
2022-09-10T00:14:11.915Z,19.19
2022-09-10T00:16:38.970Z,19.18
2022-09-10T00:19:06.731Z,19.14
2022-09-10T00:21:35.569Z,19.12
2022-09-10T00:24:05.496Z,19.11
2022-09-10T00:26:39.648Z,19.10
2022-09-10T00:29:11.701Z,19.08
2022-09-10T00:31:40.010Z,19.07
2022-09-10T00:34:09.239Z,19.03
2022-09-10T00:36:43.814Z,19.01
2022-09-10T00:39:17.168Z,18.97
2022-09-10T00:41:47.969Z,18.92
2022-09-10T00:44:40.198Z,18.89
2022-09-10T00:47:39.167Z,18.87
2022-09-10T00:50:22.145Z,18.85
2022-09-10T00:52:52.937Z,18.84
2022-09-10T00:55:22.094Z,18.85
2022-09-10T00:57:54.886Z,18.84
2022-09-10T01:00:23.009Z,18.83
2022-09-10T01:02:50.466Z,18.79
2022-09-10T01:05:19.728Z,18.79
2022-09-10T01:07:48.197Z,18.78
2022-09-10T01:10:31.054Z,18.76
2022-09-10T01:13:27.981Z,18.78
2022-09-10T01:16:19.111Z,18.77
2022-09-10T01:19:28.615Z,18.77
2022-09-10T01:22:26.389Z,18.77
2022-09-10T01:25:26.700Z,18.78
2022-09-10T01:27:59.722Z,18.78
2022-09-10T01:30:41.474Z,18.74
2022-09-10T01:33:34.591Z,18.72
2022-09-10T01:36:12.596Z,18.72
2022-09-10T01:38:43.662Z,18.75
2022-09-10T01:41:13.655Z,18.72
2022-09-10T01:43:43.525Z,18.72
2022-09-10T01:46:47.761Z,18.70
2022-09-10T01:49:32.118Z,18.68
2022-09-10T01:52:28.513Z,18.68
2022-09-10T01:55:09.110Z,18.68
2022-09-10T01:58:30.735Z,18.67
2022-09-10T02:01:45.762Z,18.65
2022-09-10T02:04:16.413Z,18.66
2022-09-10T02:06:50.055Z,18.65
2022-09-10T02:09:19.263Z,18.63
2022-09-10T02:11:56.090Z,18.60
2022-09-10T02:14:55.204Z,18.54
2022-09-10T02:17:37.068Z,18.51
2022-09-10T02:20:11.023Z,18.52
2022-09-10T02:22:44.128Z,18.52
2022-09-10T02:25:12.235Z,18.50
2022-09-10T02:27:43.410Z,18.47
2022-09-10T02:30:11.766Z,18.45
2022-09-10T02:32:40.149Z,18.45
2022-09-10T02:35:08.657Z,18.45
2022-09-10T02:37:36.010Z,18.44
2022-09-10T02:40:05.370Z,18.42
2022-09-10T02:42:34.247Z,18.40
2022-09-10T02:45:08.520Z,18.39
2022-09-10T02:47:36.952Z,18.39
2022-09-10T02:50:04.872Z,18.37
2022-09-10T02:52:34.196Z,18.34
2022-09-10T02:55:04.369Z,18.33
2022-09-10T02:57:31.502Z,18.34
2022-09-10T02:59:59.202Z,18.33
2022-09-10T03:02:28.980Z,18.34
2022-09-10T03:04:56.098Z,18.33
2022-09-10T03:07:25.272Z,18.29
2022-09-10T03:09:52.734Z,18.29
2022-09-10T03:12:21.560Z,18.27
2022-09-10T03:14:50.480Z,18.26
2022-09-10T03:17:17.881Z,18.26
2022-09-10T03:19:44.988Z,18.26
2022-09-10T03:22:12.082Z,18.25
2022-09-10T03:24:39.877Z,18.23
2022-09-10T03:27:06.932Z,18.22
2022-09-10T03:29:33.951Z,18.20
2022-09-10T03:32:03.705Z,18.20
2022-09-10T03:34:30.766Z,18.20
2022-09-10T03:36:57.806Z,18.19
2022-09-10T03:39:26.054Z,18.20
2022-09-10T03:41:53.174Z,18.18
2022-09-10T03:44:20.329Z,18.16
2022-09-10T03:46:51.207Z,18.17
2022-09-10T03:49:18.946Z,18.16
2022-09-10T03:51:46.857Z,18.15
2022-09-10T03:54:15.831Z,18.15
2022-09-10T03:56:44.225Z,18.15
2022-09-10T03:59:13.413Z,18.14
2022-09-10T04:01:42.161Z,18.14
2022-09-10T04:04:09.317Z,18.12
2022-09-10T04:06:37.599Z,18.10
2022-09-10T04:09:05.588Z,18.09
2022-09-10T04:11:33.217Z,18.09
2022-09-10T04:14:00.927Z,18.10
2022-09-10T04:16:32.616Z,18.09
2022-09-10T04:19:00.058Z,18.07
2022-09-10T04:21:31.618Z,18.07
2022-09-10T04:24:00.578Z,18.06
2022-09-10T04:26:30.318Z,18.06
2022-09-10T04:28:57.522Z,18.03
2022-09-10T04:31:25.150Z,18.03
2022-09-10T04:33:56.132Z,18.03
2022-09-10T04:36:27.158Z,18.03
2022-09-10T04:38:54.436Z,18.01
2022-09-10T04:41:21.830Z,18.01
2022-09-10T04:43:50.179Z,18.00
2022-09-10T04:46:17.861Z,17.99
2022-09-10T04:48:46.122Z,18.00
2022-09-10T04:51:18.337Z,17.99
2022-09-10T04:53:52.042Z,17.98
2022-09-10T04:56:22.468Z,17.96
2022-09-10T04:58:49.995Z,17.95
2022-09-10T05:01:17.219Z,17.95
2022-09-10T05:03:46.224Z,17.95
2022-09-10T05:06:14.029Z,17.94
2022-09-10T05:08:41.198Z,17.94
2022-09-10T05:11:10.482Z,17.92
2022-09-10T05:13:37.518Z,17.92
2022-09-10T05:16:06.115Z,17.92
2022-09-10T05:18:35.143Z,17.92
2022-09-10T05:21:04.062Z,17.92
2022-09-10T05:23:32.836Z,17.88
2022-09-10T05:26:04.416Z,17.84
2022-09-10T05:28:31.539Z,17.80
2022-09-10T05:30:58.807Z,17.79
2022-09-10T05:33:28.910Z,17.80
2022-09-10T05:35:56.562Z,17.82
2022-09-10T05:38:24.763Z,17.78
2022-09-10T05:40:52.625Z,17.75
2022-09-10T05:43:21.020Z,17.73
2022-09-10T05:45:48.945Z,17.75
2022-09-10T05:48:17.559Z,17.75
2022-09-10T05:50:45.617Z,17.75
2022-09-10T05:53:13.752Z,17.73
2022-09-10T05:55:41.577Z,17.72
2022-09-10T05:58:09.160Z,17.74
2022-09-10T06:00:38.336Z,17.77
2022-09-10T06:03:06.032Z,17.80
2022-09-10T06:05:40.487Z,17.82
2022-09-10T06:08:09.114Z,17.84
2022-09-10T06:10:40.677Z,17.85
2022-09-10T06:13:07.916Z,17.88
2022-09-10T06:15:37.976Z,17.87
2022-09-10T06:18:05.315Z,17.89
2022-09-10T06:20:33.133Z,17.89
2022-09-10T06:23:02.404Z,17.89
2022-09-10T06:25:29.466Z,17.88
2022-09-10T06:27:57.719Z,17.87
2022-09-10T06:30:26.627Z,17.86
2022-09-10T06:32:53.839Z,17.84
2022-09-10T06:35:21.600Z,17.84
2022-09-10T06:37:50.601Z,17.85
2022-09-10T06:40:18.610Z,17.85
2022-09-10T06:42:45.750Z,17.85
2022-09-10T06:45:13.289Z,17.83
2022-09-10T06:48:37.670Z,17.81
2022-09-10T06:51:01.050Z,17.80
2022-09-10T06:53:36.318Z,17.81
2022-09-10T06:56:08.697Z,17.83
2022-09-10T06:58:39.508Z,17.81
2022-09-10T07:01:17.593Z,17.82
2022-09-10T07:03:55.733Z,17.81
2022-09-10T07:06:26.487Z,17.83
2022-09-10T07:08:59.067Z,17.82
2022-09-10T07:11:32.232Z,17.83
2022-09-10T07:14:02.191Z,17.80
2022-09-10T07:16:31.990Z,17.77
2022-09-10T07:19:00.514Z,17.75
2022-09-10T07:21:37.854Z,17.74
2022-09-10T07:24:12.633Z,17.74
2022-09-10T07:26:42.499Z,17.75
2022-09-10T07:29:10.574Z,17.79
2022-09-10T07:31:38.739Z,17.81
2022-09-10T07:34:10.436Z,17.85
2022-09-10T07:36:37.581Z,17.86
2022-09-10T07:39:05.209Z,17.89
2022-09-10T07:41:36.207Z,17.91
2022-09-10T07:44:07.126Z,17.89
2022-09-10T07:46:38.671Z,17.88
2022-09-10T07:49:10.821Z,17.86
2022-09-10T07:51:40.714Z,17.84
2022-09-10T07:54:08.098Z,17.86
2022-09-10T07:56:46.820Z,17.90
2022-09-10T07:59:15.635Z,17.90
2022-09-10T08:01:52.514Z,17.89
2022-09-10T08:04:21.199Z,17.90
2022-09-10T08:06:48.220Z,17.92
2022-09-10T08:09:17.865Z,17.94
2022-09-10T08:11:51.579Z,18.01
2022-09-10T08:14:21.877Z,18.01
2022-09-10T08:16:52.550Z,18.04
2022-09-10T08:19:21.501Z,18.07
2022-09-10T08:21:49.794Z,18.13
2022-09-10T08:24:23.505Z,18.23
2022-09-10T08:26:52.898Z,18.32
2022-09-10T08:29:20.196Z,18.35
2022-09-10T08:31:47.533Z,18.41
2022-09-10T08:34:23.126Z,18.43
2022-09-10T08:36:57.005Z,18.41
2022-09-10T08:39:24.899Z,18.43
2022-09-10T08:42:09.402Z,18.49
2022-09-10T08:45:07.073Z,18.58
2022-09-10T08:47:58.844Z,18.61
2022-09-10T08:51:00.578Z,18.67
2022-09-10T08:53:53.690Z,18.78
2022-09-10T08:56:25.140Z,18.83
2022-09-10T08:59:18.476Z,18.82
2022-09-10T09:02:37.913Z,18.83
2022-09-10T09:05:17.116Z,18.86
2022-09-10T09:07:48.432Z,18.92
2022-09-10T09:10:26.018Z,18.98
2022-09-10T09:13:32.609Z,19.00
2022-09-10T09:16:17.676Z,19.10
2022-09-10T09:19:14.662Z,19.23
2022-09-10T09:21:56.734Z,19.35
2022-09-10T09:24:59.205Z,19.45
2022-09-10T09:27:36.323Z,19.52
2022-09-10T09:30:19.351Z,19.62
2022-09-10T09:32:47.989Z,19.73
2022-09-10T09:35:34.773Z,19.79
2022-09-10T09:38:08.010Z,19.86
2022-09-10T09:40:41.650Z,19.94
2022-09-10T09:44:00.383Z,20.04
2022-09-10T09:46:30.961Z,20.09
2022-09-10T09:49:03.880Z,20.18
2022-09-10T09:51:35.765Z,20.20
2022-09-10T09:57:03.318Z,20.42
2022-09-10T09:59:34.901Z,20.41
2022-09-10T10:02:24.813Z,20.56
2022-09-10T10:05:23.155Z,20.62
2022-09-10T10:07:50.750Z,20.69
2022-09-10T10:10:28.053Z,20.67
2022-09-10T10:12:56.178Z,20.69
2022-09-10T10:15:39.049Z,20.74
2022-09-10T10:18:31.777Z,20.74
2022-09-10T10:21:15.999Z,20.67
2022-09-10T10:23:44.333Z,20.63
2022-09-10T10:26:23.991Z,20.65
2022-09-10T10:29:06.289Z,20.67
2022-09-10T10:31:56.056Z,20.61
2022-09-10T10:34:48.713Z,20.64
2022-09-10T10:37:53.615Z,20.74
2022-09-10T10:40:48.709Z,20.82
2022-09-10T10:43:51.389Z,20.86
2022-09-10T10:46:30.294Z,20.92
2022-09-10T10:49:19.946Z,21.08
2022-09-10T10:52:13.980Z,21.13
2022-09-10T10:55:18.702Z,21.27
2022-09-10T10:58:13.325Z,21.43
2022-09-10T11:00:49.677Z,21.60
2022-09-10T11:03:27.848Z,21.69
2022-09-10T11:06:08.420Z,21.73
2022-09-10T11:08:56.321Z,21.86
2022-09-10T11:11:33.355Z,22.04
2022-09-10T11:14:33.349Z,22.17
2022-09-10T11:17:13.341Z,22.10
2022-09-10T11:20:29.121Z,22.28
2022-09-10T11:23:22.651Z,22.19
2022-09-10T11:26:13.523Z,22.20
2022-09-10T11:29:20.784Z,22.23
2022-09-10T11:32:04.757Z,22.33
2022-09-10T11:34:47.654Z,22.34
2022-09-10T11:37:40.192Z,22.46
2022-09-10T11:40:19.998Z,22.62
2022-09-10T11:42:56.536Z,22.67
2022-09-10T11:45:52.611Z,22.82
2022-09-10T11:49:03.466Z,22.92
2022-09-10T11:51:38.343Z,23.05
2022-09-10T11:54:14.025Z,23.03
2022-09-10T11:57:09.753Z,23.00
2022-09-10T12:00:03.879Z,23.04
2022-09-10T12:02:58.541Z,23.23
2022-09-10T12:05:58.251Z,23.36
2022-09-10T12:08:49.498Z,23.60
2022-09-10T12:11:55.971Z,23.77
2022-09-10T12:14:24.039Z,23.97
2022-09-10T12:16:59.582Z,24.21
2022-09-10T12:19:34.421Z,24.32
2022-09-10T12:22:09.414Z,24.42
2022-09-10T12:24:39.273Z,24.89
2022-09-10T12:27:07.801Z,25.52
2022-09-10T12:29:40.792Z,25.84
2022-09-10T12:32:08.678Z,25.87
2022-09-10T12:34:37.676Z,25.92
2022-09-10T12:37:04.771Z,25.95
2022-09-10T12:39:34.086Z,26.06
2022-09-10T12:42:23.443Z,26.40
2022-09-10T12:44:51.113Z,26.78
2022-09-10T12:47:18.064Z,27.04
2022-09-10T12:50:04.963Z,27.05
2022-09-10T12:52:35.197Z,26.95
2022-09-10T12:55:54.769Z,27.20
2022-09-10T12:59:04.437Z,27.01
2022-09-10T13:01:47.954Z,26.58
2022-09-10T13:04:28.818Z,26.53
2022-09-10T13:07:03.062Z,26.53
2022-09-10T13:09:38.303Z,26.63
2022-09-10T13:12:22.144Z,26.82
2022-09-10T13:14:54.886Z,26.84
2022-09-10T13:18:02.399Z,26.79
2022-09-10T13:20:35.434Z,26.85
2022-09-10T13:23:08.870Z,26.93
2022-09-10T13:25:45.870Z,27.14
2022-09-10T13:28:33.878Z,27.44
2022-09-10T13:31:11.228Z,27.82
2022-09-10T13:34:15.966Z,28.34
2022-09-10T13:37:13.589Z,28.32
2022-09-10T13:39:50.098Z,28.06
2022-09-10T13:42:39.687Z,27.87
2022-09-10T13:45:51.941Z,27.83
2022-09-10T13:49:04.445Z,28.53
2022-09-10T13:51:56.620Z,28.57
2022-09-10T13:54:53.208Z,28.58
2022-09-10T13:57:45.141Z,28.91
2022-09-10T14:00:25.590Z,28.59
2022-09-10T14:02:56.940Z,28.42
2022-09-10T14:05:26.540Z,28.63
2022-09-10T14:07:58.306Z,29.09
2022-09-10T14:10:26.290Z,28.86
2022-09-10T14:12:55.786Z,28.84
2022-09-10T14:15:35.178Z,28.80
2022-09-10T14:18:03.418Z,28.81
2022-09-10T14:20:34.646Z,28.74
2022-09-10T14:23:12.845Z,28.71
2022-09-10T14:25:43.768Z,28.64
2022-09-10T14:28:24.396Z,28.53
2022-09-10T14:31:18.710Z,28.43
2022-09-10T14:33:46.018Z,28.32
2022-09-10T14:36:33.725Z,28.08
2022-09-10T14:39:17.736Z,27.90
2022-09-10T14:41:46.285Z,27.79
2022-09-10T14:44:20.365Z,27.53
2022-09-10T14:47:01.025Z,27.33
2022-09-10T14:49:34.808Z,27.15
2022-09-10T14:52:05.416Z,26.94
2022-09-10T14:54:34.828Z,26.72
2022-09-10T14:57:13.979Z,26.60
2022-09-10T14:59:44.623Z,26.42
2022-09-10T15:02:31.979Z,26.22
2022-09-10T15:04:59.849Z,26.14
2022-09-10T15:07:27.813Z,25.99
2022-09-10T15:09:55.164Z,25.83
2022-09-10T15:12:27.768Z,25.75
2022-09-10T15:14:57.087Z,25.66
2022-09-10T15:17:24.962Z,25.58
2022-09-10T15:19:52.200Z,25.48
2022-09-10T15:22:24.934Z,25.38
2022-09-10T15:25:10.789Z,25.34
2022-09-10T15:27:38.722Z,25.31
2022-09-10T15:30:07.229Z,25.26
2022-09-10T15:32:34.331Z,25.18
2022-09-10T15:35:04.329Z,25.18
2022-09-10T15:37:32.217Z,25.16
2022-09-10T15:39:59.701Z,25.15
2022-09-10T15:42:26.713Z,25.14
2022-09-10T15:44:54.292Z,25.10
2022-09-10T15:47:21.735Z,25.06
2022-09-10T15:49:48.832Z,25.01
2022-09-10T15:52:16.183Z,24.95
2022-09-10T15:54:43.922Z,24.91
2022-09-10T15:57:11.775Z,24.87
2022-09-10T15:59:39.283Z,24.81
2022-09-10T16:02:06.642Z,24.72
2022-09-10T16:04:36.187Z,24.65
2022-09-10T16:07:04.565Z,24.61
2022-09-10T16:09:32.433Z,24.59
2022-09-10T16:11:59.650Z,24.54
2022-09-10T16:14:27.110Z,24.47
2022-09-10T16:16:54.170Z,24.39
2022-09-10T16:19:21.266Z,24.31
2022-09-10T16:21:48.865Z,24.21
2022-09-10T16:24:16.007Z,24.16
2022-09-10T16:26:45.311Z,24.12
2022-09-10T16:29:19.507Z,24.07
2022-09-10T16:31:48.272Z,24.02
2022-09-10T16:34:18.817Z,23.96
2022-09-10T16:36:48.865Z,23.90
2022-09-10T16:39:18.971Z,23.84
2022-09-10T16:41:49.111Z,23.77
2022-09-10T16:44:18.187Z,23.70
2022-09-10T16:46:46.996Z,23.63
2022-09-10T16:49:18.118Z,23.58
2022-09-10T16:51:49.199Z,23.50
2022-09-10T16:54:19.949Z,23.42
2022-09-10T16:56:48.840Z,23.36
2022-09-10T16:59:22.946Z,23.31
2022-09-10T17:01:51.875Z,23.24
2022-09-10T17:04:28.188Z,23.17
2022-09-10T17:06:57.542Z,23.10
2022-09-10T17:09:25.267Z,23.01
2022-09-10T17:11:52.705Z,22.95
2022-09-10T17:14:20.379Z,22.89
2022-09-10T17:16:48.658Z,22.84
2022-09-10T17:19:21.360Z,22.76
2022-09-10T17:21:51.397Z,22.70
2022-09-10T17:24:22.410Z,22.63
2022-09-10T17:26:51.482Z,22.56
2022-09-10T17:29:22.658Z,22.47
2022-09-10T17:31:55.473Z,22.40
2022-09-10T17:34:24.515Z,22.34
2022-09-10T17:36:51.970Z,22.28
2022-09-10T17:39:19.182Z,22.22
2022-09-10T17:41:47.719Z,22.15
2022-09-10T17:44:16.374Z,22.08
2022-09-10T17:46:43.697Z,22.02
2022-09-10T17:49:14.502Z,21.99
2022-09-10T17:51:42.725Z,21.93
2022-09-10T17:54:10.914Z,21.65
2022-09-10T17:56:38.429Z,21.19
2022-09-10T17:59:06.367Z,20.95
2022-09-10T18:01:40.008Z,21.07
2022-09-10T18:04:12.522Z,21.00
2022-09-10T18:06:40.762Z,20.84
2022-09-10T18:09:08.680Z,20.82
2022-09-10T18:11:40.752Z,20.88
2022-09-10T18:14:08.950Z,20.94
2022-09-10T18:16:37.889Z,20.98
2022-09-10T18:19:13.794Z,20.85
2022-09-10T18:21:44.644Z,20.83
2022-09-10T18:24:22.735Z,20.79
2022-09-10T18:26:57.257Z,20.75
2022-09-10T18:29:28.356Z,20.68
2022-09-10T18:32:00.612Z,20.65
2022-09-10T18:34:31.124Z,20.60
2022-09-10T18:37:03.314Z,20.55
2022-09-10T18:39:32.952Z,20.49
2022-09-10T18:42:01.336Z,20.46
2022-09-10T18:44:36.983Z,20.41
2022-09-10T18:47:27.894Z,20.37
2022-09-10T18:49:58.310Z,20.31
2022-09-10T18:52:27.050Z,20.24
2022-09-10T18:54:54.234Z,20.18
2022-09-10T18:57:21.244Z,20.13
2022-09-10T18:59:48.854Z,20.07
2022-09-10T19:02:17.802Z,20.02
2022-09-10T19:05:00.729Z,19.96
2022-09-10T19:07:32.649Z,19.86
2022-09-10T19:10:04.004Z,19.83
2022-09-10T19:12:31.203Z,19.79
2022-09-10T19:14:58.789Z,19.74
2022-09-10T19:17:25.884Z,19.67
2022-09-10T19:19:52.855Z,19.62
2022-09-10T19:22:20.349Z,19.55
2022-09-10T19:24:55.839Z,19.50
2022-09-10T19:27:24.478Z,19.46
2022-09-10T19:29:52.033Z,19.39
2022-09-10T19:32:20.172Z,19.35
2022-09-10T19:34:52.330Z,19.30
2022-09-10T19:37:19.814Z,19.25
2022-09-10T19:39:47.515Z,19.18
2022-09-10T19:42:15.584Z,19.14
2022-09-10T19:44:43.613Z,19.11
2022-09-10T19:47:10.642Z,19.08
2022-09-10T19:49:39.147Z,19.05
2022-09-10T19:52:06.222Z,19.02
2022-09-10T19:54:33.420Z,19.01
2022-09-10T19:57:02.365Z,18.94
2022-09-10T19:59:29.394Z,18.91
2022-09-10T20:01:56.663Z,18.91
2022-09-10T20:04:25.858Z,18.88
2022-09-10T20:06:53.210Z,18.82
2022-09-10T20:09:20.361Z,18.81
2022-09-10T20:11:48.029Z,18.76
2022-09-10T20:14:15.489Z,18.73
2022-09-10T20:16:45.663Z,18.70
2022-09-10T20:19:18.438Z,18.67
2022-09-10T20:21:47.648Z,18.61
2022-09-10T20:24:16.499Z,18.61
2022-09-10T20:26:46.153Z,18.58
2022-09-10T20:29:17.898Z,18.55
2022-09-10T20:31:48.644Z,18.50
2022-09-10T20:34:21.916Z,18.47
2022-09-10T20:36:51.369Z,18.44
2022-09-10T20:39:25.226Z,18.38
2022-09-10T20:41:53.385Z,18.33
2022-09-10T20:44:20.992Z,18.29
2022-09-10T20:46:48.131Z,18.24
2022-09-10T20:49:16.885Z,18.20
2022-09-10T20:51:44.737Z,18.13
2022-09-10T20:54:16.732Z,18.08
2022-09-10T20:56:44.728Z,18.05
2022-09-10T20:59:15.477Z,17.99
2022-09-10T21:01:46.043Z,17.96
2022-09-10T21:04:14.834Z,17.92
2022-09-10T21:06:42.292Z,17.89
2022-09-10T21:09:10.276Z,17.86
2022-09-10T21:11:38.627Z,17.83
2022-09-10T21:14:07.669Z,17.78
2022-09-10T21:16:39.470Z,17.73
2022-09-10T21:19:14.173Z,17.70
2022-09-10T21:21:44.834Z,17.64
2022-09-10T21:24:17.507Z,17.60
2022-09-10T21:26:45.119Z,17.56
2022-09-10T21:29:18.627Z,17.50
2022-09-10T21:31:50.801Z,17.47
2022-09-10T21:34:19.190Z,17.42
2022-09-10T21:36:46.476Z,17.41
2022-09-10T21:39:17.665Z,17.38
2022-09-10T21:41:48.426Z,17.32
2022-09-10T21:44:22.104Z,17.29
2022-09-10T21:46:50.385Z,17.26
2022-09-10T21:49:20.178Z,17.23
2022-09-10T21:51:47.617Z,17.19
2022-09-10T21:54:21.345Z,17.16
2022-09-10T21:56:50.996Z,17.12
2022-09-10T21:59:21.306Z,17.10
2022-09-10T22:01:49.101Z,17.08
2022-09-10T22:04:22.535Z,17.05
2022-09-10T22:06:51.854Z,17.05
2022-09-10T22:09:20.530Z,17.00
2022-09-10T22:11:51.837Z,16.97
2022-09-10T22:14:23.102Z,16.94
2022-09-10T22:16:51.781Z,16.92
2022-09-10T22:19:23.005Z,16.86
2022-09-10T22:21:51.089Z,16.83
2022-09-10T22:24:18.966Z,16.80
2022-09-10T22:26:48.471Z,16.76
2022-09-10T22:29:20.566Z,16.71
2022-09-10T22:31:50.100Z,16.69
2022-09-10T22:34:18.725Z,16.65
2022-09-10T22:36:48.409Z,16.62
2022-09-10T22:39:20.299Z,16.57
2022-09-10T22:41:49.326Z,16.54
2022-09-10T22:44:18.037Z,16.49
2022-09-10T22:46:45.357Z,16.46
2022-09-10T22:49:12.654Z,16.41
2022-09-10T22:51:43.962Z,16.38
2022-09-10T22:54:11.402Z,16.33
2022-09-10T22:56:39.997Z,16.30
2022-09-10T22:59:12.247Z,16.27
2022-09-10T23:01:40.446Z,16.22
2022-09-10T23:04:09.354Z,16.19
2022-09-10T23:06:38.642Z,16.14
2022-09-10T23:09:10.846Z,16.12
2022-09-10T23:11:39.499Z,16.07
2022-09-10T23:14:12.943Z,16.05
2022-09-10T23:16:44.526Z,16.01
2022-09-10T23:19:16.955Z,15.97
2022-09-10T23:21:48.678Z,15.93
2022-09-10T23:24:20.843Z,15.91
2022-09-10T23:26:48.464Z,15.88
2022-09-10T23:29:19.934Z,15.84
2022-09-10T23:31:47.575Z,15.83
2022-09-10T23:34:18.810Z,15.77
2022-09-10T23:36:48.992Z,15.76
2022-09-10T23:39:19.972Z,15.72
2022-09-10T23:41:53.766Z,15.70
2022-09-10T23:44:22.153Z,15.66
2022-09-10T23:46:49.241Z,15.62
2022-09-10T23:49:16.760Z,15.60
2022-09-10T23:51:44.650Z,15.58
2022-09-10T23:54:12.086Z,15.53
2022-09-10T23:56:40.016Z,15.49
2022-09-10T23:59:09.438Z,15.45
